Time;durP1;ratioP1;P1;durP2;ratioP2;P2;SDS_P1;SDS_P2;PMS_P1;PMS_P2;Temp;Humidity;BMP_temperature;BMP_pressure;BME280_temperature;BME280_humidity;BME280_pressure;Samples;Min_cycle;Max_cycle;Signal;HPM_P1;HPM_P2
2023/03/25 00:01:16;;;;;;;13.50;8.80;;;;;;;15.45;56.56;97913.46;223592;182;149379;-74
2023/03/25 00:06:26;;;;;;;15.30;9.40;;;;;;;15.37;56.69;97913.52;223647;183;140779;-72
2023/03/25 00:11:30;;;;;;;12.60;9.20;;;;;;;15.32;56.93;97920.42;222822;183;137255;-74
2023/03/25 00:16:33;;;;;;;12.80;8.30;;;;;;;15.35;56.88;97924.45;223713;183;149530;-74
2023/03/25 00:21:38;;;;;;;11.40;8.60;;;;;;;15.32;56.96;97922.59;223552;183;138545;-74
2023/03/25 00:26:47;;;;;;;11.80;8.10;;;;;;;15.32;57.00;97917.36;223295;183;137837;-75
2023/03/25 00:31:51;;;;;;;12.50;8.70;;;;;;;15.34;56.92;97905.35;223716;183;148764;-75
2023/03/25 00:36:55;;;;;;;14.50;8.60;;;;;;;15.31;57.02;97897.42;223505;182;139845;-75
2023/03/25 00:42:00;;;;;;;11.20;8.10;;;;;;;15.18;57.28;97895.95;223650;183;137577;-75
2023/03/25 00:47:04;;;;;;;;;;;;;;;15.05;57.51;97888.95;223663;183;148942;-75
2023/03/25 00:52:08;;;;;;;14.00;8.60;;;;;;;15.06;57.62;97880.69;223670;183;140851;-75
2023/03/25 00:57:12;;;;;;;13.50;8.70;;;;;;;15.09;57.61;97886.25;223685;183;137645;-76
2023/03/25 01:02:17;;;;;;;10.20;8.10;;;;;;;15.17;57.42;97887.81;223603;182;149268;-76
2023/03/25 01:07:21;;;;;;;12.10;7.90;;;;;;;15.26;57.04;97888.36;223636;178;138125;-76
2023/03/25 01:12:26;;;;;;;11.30;8.30;;;;;;;15.27;56.93;97893.92;223723;182;137147;-75
2023/03/25 01:17:30;;;;;;;12.30;8.60;;;;;;;15.27;56.92;97888.80;223616;183;149655;-75
2023/03/25 01:22:34;;;;;;;14.50;8.90;;;;;;;15.28;56.91;97881.18;223622;183;138873;-75
2023/03/25 01:27:38;;;;;;;11.10;8.20;;;;;;;15.25;57.04;97873.94;222622;183;137667;-73
2023/03/25 01:32:41;;;;;;;13.70;9.30;;;;;;;15.25;56.93;97876.81;223649;183;148951;-74
2023/03/25 01:37:45;;;;;;;13.80;8.60;;;;;;;15.25;56.99;97879.84;223573;183;138980;-74
2023/03/25 01:42:49;;;;;;;13.00;7.90;;;;;;;15.22;56.90;97880.85;223691;182;137475;-74
2023/03/25 01:48:23;;;;;;;10.90;7.60;;;;;;;15.14;57.20;97874.17;223678;182;149305;-73
2023/03/25 01:53:31;;;;;;;11.80;7.40;;;;;;;15.14;57.23;97874.11;223638;183;138994;-73
2023/03/25 01:58:35;;;;;;;9.20;6.80;;;;;;;15.09;57.24;97866.77;223648;183;136933;-73
2023/03/25 02:03:44;;;;;;;12.40;6.70;;;;;;;15.08;57.34;97872.74;223684;183;149300;-73
2023/03/25 02:08:51;;;;;;;11.10;6.40;;;;;;;15.07;57.45;97862.48;223618;182;138410;-73
2023/03/25 02:14:01;;;;;;;9.50;5.80;;;;;;;15.01;57.50;97860.61;223648;183;137658;-73
2023/03/25 02:19:05;;;;;;;8.70;6.20;;;;;;;14.98;57.67;97865.17;223665;182;149397;-73
2023/03/25 02:24:18;;;;;;;8.30;5.90;;;;;;;14.99;57.67;97860.32;223659;182;138324;-73
2023/03/25 02:29:38;;;;;;;9.40;5.20;;;;;;;14.96;57.90;97867.52;223720;182;136818;-73
2023/03/25 02:35:19;;;;;;;8.40;5.10;;;;;;;14.90;58.12;97871.81;223628;183;149523;-74
2023/03/25 02:40:54;;;;;;;6.00;4.30;;;;;;;14.93;58.20;97875.77;223276;183;140247;-73
2023/03/25 02:46:02;;;;;;;6.50;4.40;;;;;;;14.95;58.34;97878.20;223574;183;139313;-74
2023/03/25 02:51:16;;;;;;;6.40;4.50;;;;;;;14.91;58.34;97879.33;223620;183;149279;-74
2023/03/25 02:56:43;;;;;;;7.90;4.30;;;;;;;14.87;58.65;97879.32;223554;183;138845;-74
2023/03/25 03:01:49;;;;;;;6.60;4.10;;;;;;;14.89;58.80;97887.85;223605;183;137333;-74
2023/03/25 03:06:56;;;;;;;6.00;3.90;;;;;;;14.88;59.01;97891.35;223728;183;148976;-73
2023/03/25 03:12:41;;;;;;;6.30;4.10;;;;;;;14.90;59.10;97888.70;223674;182;137635;-74
2023/03/25 03:17:56;;;;;;;6.80;4.30;;;;;;;14.95;59.19;97886.46;223705;182;137099;-74
2023/03/25 03:23:19;;;;;;;5.90;4.40;;;;;;;14.93;59.34;97889.14;223726;182;148739;-73
2023/03/25 03:28:33;;;;;;;9.40;5.50;;;;;;;14.96;59.40;97895.45;222661;183;138492;-73
2023/03/25 03:33:49;;;;;;;5.80;4.80;;;;;;;14.98;59.31;97903.95;223609;182;137721;-73
2023/03/25 03:39:00;;;;;;;8.80;5.50;;;;;;;14.95;58.91;97902.14;223455;182;149680;-75
2023/03/25 03:44:09;;;;;;;9.20;5.90;;;;;;;14.96;58.74;97916.66;222872;183;139134;-77
2023/03/25 03:49:19;;;;;;;8.30;5.10;;;;;;;14.93;58.80;97920.88;223677;183;140909;-75
2023/03/25 03:54:32;;;;;;;5.90;4.60;;;;;;;14.87;58.32;97920.91;223670;183;149372;-75
2023/03/25 03:59:46;;;;;;;7.90;5.10;;;;;;;14.81;57.75;97921.17;223598;183;138967;-74
2023/03/25 04:04:52;;;;;;;8.80;3.70;;;;;;;14.81;56.94;97926.39;223676;182;137534;-74
2023/03/25 04:10:13;;;;;;;5.80;3.80;;;;;;;14.76;56.17;97934.50;223047;182;149614;-74
2023/03/25 04:15:17;;;;;;;7.30;4.20;;;;;;;14.69;55.74;97944.62;223586;183;138489;-75
2023/03/25 04:20:28;;;;;;;6.60;3.40;;;;;;;14.63;55.36;97949.85;223655;183;136823;-75
2023/03/25 04:31:54;;;;;;;7.60;4.00;;;;;;;14.59;54.73;97963.67;223701;183;139003;-73
2023/03/25 04:36:58;;;;;;;8.30;4.20;;;;;;;14.53;54.88;97962.79;223596;183;137159;-73
2023/03/25 04:42:02;;;;;;;5.40;3.10;;;;;;;14.44;54.58;97957.02;223657;183;150389;-73
2023/03/25 04:47:13;;;;;;;7.00;3.10;;;;;;;14.32;54.14;97960.80;223669;182;138787;-73
2023/03/25 04:52:17;;;;;;;4.90;2.60;;;;;;;14.16;54.45;97964.23;223658;183;137833;-73
2023/03/25 04:57:21;;;;;;;5.40;2.80;;;;;;;14.07;54.75;97966.58;223679;183;148837;-73
2023/03/25 05:02:24;;;;;;;5.70;2.80;;;;;;;13.96;54.74;97968.00;223454;183;139347;-73
2023/03/25 05:07:28;;;;;;;5.20;2.70;;;;;;;13.84;54.72;97980.68;223726;183;137498;-73
2023/03/25 05:12:32;;;;;;;4.30;2.50;;;;;;;13.75;55.03;97982.93;223705;183;148811;-72
2023/03/25 05:18:12;;;;;;;6.60;2.80;;;;;;;13.77;55.25;97992.00;223887;216;138490;-73
2023/03/25 05:23:16;;;;;;;6.00;2.60;;;;;;;13.77;55.61;98004.09;223779;183;137800;-72
2023/03/25 05:28:20;;;;;;;7.80;2.80;;;;;;;13.71;55.92;98005.00;223574;183;150060;-73
2023/03/25 05:33:23;;;;;;;5.00;2.70;;;;;;;13.60;56.34;98008.06;222789;183;138692;-73
2023/03/25 05:38:27;;;;;;;6.40;3.30;;;;;;;13.60;56.58;98004.04;223686;183;137745;-74
2023/03/25 05:43:34;;;;;;;247.70;178.10;;;;;;;13.61;56.67;98006.66;223696;183;149290;-73
2023/03/25 05:48:40;;;;;;;10.00;5.70;;;;;;;13.62;56.97;98004.59;223615;183;138483;-75
2023/03/25 05:53:44;;;;;;;;;;;;;;;13.64;57.01;98014.00;223683;183;137713;-73
2023/03/25 05:58:49;;;;;;;7.10;3.50;;;;;;;13.61;56.97;98017.54;223771;183;150514;-71
2023/03/25 06:03:53;;;;;;;7.60;3.50;;;;;;;13.59;57.24;98022.86;223062;182;139699;-75
2023/03/25 06:08:57;;;;;;;6.00;3.40;;;;;;;13.57;57.39;98026.83;223222;183;137679;-75
2023/03/25 06:14:01;;;;;;;39.30;28.90;;;;;;;13.55;57.38;98024.36;223416;183;149782;-73
2023/03/25 06:19:08;;;;;;;10.40;5.90;;;;;;;13.56;57.46;98022.10;223591;183;138347;-71
2023/03/25 06:24:12;;;;;;;7.50;5.00;;;;;;;13.58;57.49;98032.66;223660;183;137152;-72
2023/03/25 06:29:16;;;;;;;10.90;5.80;;;;;;;13.49;57.67;98040.69;223666;183;149627;-72
2023/03/25 06:34:19;;;;;;;13.10;7.00;;;;;;;13.49;57.82;98046.21;223629;183;138483;-72
2023/03/25 06:39:32;;;;;;;11.50;5.50;;;;;;;13.57;57.76;98042.46;223642;182;158342;-73
2023/03/25 06:44:38;;;;;;;9.90;5.60;;;;;;;13.57;57.80;98032.52;223615;183;148835;-73
2023/03/25 06:50:10;;;;;;;13.30;6.60;;;;;;;13.58;57.92;98043.65;223625;183;140541;-72
2023/03/25 06:55:14;;;;;;;10.90;6.30;;;;;;;13.63;57.96;98050.10;223673;183;137789;-72
2023/03/25 07:00:22;;;;;;;13.50;6.50;;;;;;;13.65;57.89;98056.95;223581;183;148786;-73
2023/03/25 07:05:25;;;;;;;13.00;6.60;;;;;;;13.65;58.00;98063.70;223706;183;138502;-71
2023/03/25 07:10:31;;;;;;;214.70;155.00;;;;;;;13.68;57.92;98057.48;223468;183;137673;-76
2023/03/25 07:15:35;;;;;;;15.90;7.80;;;;;;;13.74;57.78;98049.86;222822;182;149286;-73
2023/03/25 07:20:38;;;;;;;9.70;6.00;;;;;;;13.76;57.76;98051.50;223606;183;139833;-72
2023/03/25 07:25:48;;;;;;;12.10;5.40;;;;;;;13.78;57.82;98057.33;223610;183;137694;-72
2023/03/25 07:30:52;;;;;;;8.60;5.00;;;;;;;13.81;57.76;98054.93;223631;183;149400;-72
2023/03/25 07:35:55;;;;;;;10.60;6.00;;;;;;;13.75;57.78;98049.81;223604;182;138977;-73
2023/03/25 07:41:03;;;;;;;12.00;5.40;;;;;;;13.81;57.82;98045.12;223640;182;137187;-70
2023/03/25 07:46:06;;;;;;;10.00;5.40;;;;;;;13.89;57.56;98046.70;223555;182;149244;-70
2023/03/25 07:51:11;;;;;;;8.40;5.10;;;;;;;13.94;57.58;98047.82;223579;183;139949;-70
2023/03/25 07:56:16;;;;;;;100.00;69.20;;;;;;;14.02;57.49;98042.98;223600;183;137437;-72
2023/03/25 08:01:20;;;;;;;8.10;6.10;;;;;;;14.06;57.14;98031.29;223606;182;148942;-74
2023/03/25 08:06:24;;;;;;;11.00;5.10;;;;;;;14.12;57.16;98027.11;223504;180;138277;-74
2023/03/25 08:11:27;;;;;;;8.40;4.80;;;;;;;14.14;56.98;98032.04;223675;182;137161;-72
2023/03/25 08:16:30;;;;;;;10.80;4.70;;;;;;;14.24;56.67;98029.94;223632;183;149360;-72
2023/03/25 08:21:34;;;;;;;11.10;4.80;;;;;;;14.23;56.40;98036.11;223565;182;138625;-75
2023/03/25 08:26:38;;;;;;;6.00;4.20;;;;;;;14.23;56.31;98044.45;223613;183;137987;-76
2023/03/25 08:31:45;;;;;;;9.50;4.50;;;;;;;14.27;55.97;98044.95;223606;183;148816;-74
2023/03/25 08:36:49;;;;;;;8.60;5.60;;;;;;;14.33;56.29;98044.45;223573;183;138777;-78
2023/03/25 08:41:53;;;;;;;8.80;5.30;;;;;;;14.44;56.75;98039.27;223561;183;137931;-76
2023/03/25 08:46:56;;;;;;;6.50;5.40;;;;;;;14.51;57.05;98046.33;223648;183;149321;-74
2023/03/25 08:52:00;;;;;;;8.80;5.70;;;;;;;14.57;57.22;98046.42;223579;183;138475;-76
2023/03/25 08:57:04;;;;;;;8.40;5.10;;;;;;;14.75;57.18;98036.60;223637;183;137703;-75
2023/03/25 09:02:10;;;;;;;11.10;5.40;;;;;;;14.89;56.47;98025.88;223586;183;148955;-73
2023/03/25 09:07:14;;;;;;;16.40;8.60;;;;;;;15.02;55.88;98019.45;223605;183;138754;-74
2023/03/25 09:12:18;;;;;;;10.60;4.70;;;;;;;15.19;54.88;98022.66;223606;182;137093;-74
2023/03/25 09:17:21;;;;;;;5.50;3.30;;;;;;;15.29;54.31;98018.83;223663;182;149181;-74
2023/03/25 09:22:25;;;;;;;6.00;2.90;;;;;;;15.50;52.80;98003.73;223300;183;139682;-74
2023/03/25 09:27:28;;;;;;;7.50;2.90;;;;;;;15.65;51.09;97999.58;223627;183;137271;-74
2023/03/25 09:32:33;;;;;;;5.40;3.00;;;;;;;15.82;50.52;97988.91;223583;183;149025;-74
2023/03/25 09:37:36;;;;;;;5.00;2.50;;;;;;;16.03;49.55;97980.21;223596;183;138674;-74
2023/03/25 09:43:05;;;;;;;5.20;2.40;;;;;;;16.12;47.75;97974.52;223606;183;136928;-75
2023/03/25 09:48:32;;;;;;;4.10;2.00;;;;;;;16.10;46.86;97971.05;223454;183;148956;-73
2023/03/25 09:53:39;;;;;;;10.80;4.50;;;;;;;16.21;46.42;97968.00;217922;182;138601;-74
2023/03/25 09:58:49;;;;;;;6.30;2.40;;;;;;;16.29;45.34;97949.27;223661;183;137765;-76
2023/03/25 10:04:16;;;;;;;4.70;2.00;;;;;;;16.45;45.75;97938.73;223613;183;148646;-75
2023/03/25 10:09:37;;;;;;;5.20;2.10;;;;;;;16.63;45.57;97937.30;223508;182;138727;-76
2023/03/25 10:14:55;;;;;;;5.60;2.20;;;;;;;16.91;45.54;97934.47;223569;183;137225;-74
2023/03/25 10:20:35;;;;;;;7.00;2.20;;;;;;;17.01;44.57;97929.19;223540;183;149426;-74
2023/03/25 10:25:44;;;;;;;5.20;2.30;;;;;;;17.23;44.32;97919.67;223560;183;138747;-75
2023/03/25 10:30:52;;;;;;;5.00;2.30;;;;;;;17.47;43.33;97921.23;223538;183;137971;-74
2023/03/25 10:35:58;;;;;;;6.00;2.20;;;;;;;17.62;42.15;97919.98;223604;183;149201;-74
2023/03/25 10:41:25;;;;;;;3.70;2.00;;;;;;;17.58;42.01;97921.81;223639;183;138794;-75
2023/03/25 10:46:46;;;;;;;12.00;7.70;;;;;;;17.39;42.21;97914.02;223596;183;137127;-72
2023/03/25 10:52:03;;;;;;;10.40;2.10;;;;;;;17.16;42.19;97908.98;223549;182;149355;-64
2023/03/25 10:57:21;;;;;;;4.80;2.00;;;;;;;17.11;41.73;97898.18;223702;183;140697;-68
2023/03/25 11:02:33;;;;;;;4.40;2.20;;;;;;;17.19;41.63;97891.23;223744;185;137493;-64
2023/03/25 11:08:00;;;;;;;4.10;1.90;;;;;;;17.32;41.55;97880.66;223787;182;148873;-68
2023/03/25 11:13:42;;;;;;;4.70;2.10;;;;;;;17.75;40.24;97855.56;223433;182;139052;-64
2023/03/25 11:18:47;;;;;;;5.40;1.70;;;;;;;18.03;38.81;97851.91;223539;182;137427;-65
2023/03/25 11:23:52;;;;;;;5.80;2.20;;;;;;;18.03;38.86;97850.14;223580;182;150913;-66
2023/03/25 11:35:19;;;;;;;4.60;1.50;;;;;;;18.27;38.12;97839.35;223785;182;137479;-66
2023/03/25 11:43:03;;;;;;;4.10;1.70;;;;;;;18.54;36.63;97829.64;221610;193;676818;-66
2023/03/25 11:48:37;;;;;;;3.10;1.80;;;;;;;18.56;37.52;97828.86;223311;185;137064;-65
2023/03/25 11:54:05;;;;;;;6.10;3.40;;;;;;;18.38;38.26;97828.80;223357;185;144519;-65
2023/03/25 11:59:34;;;;;;;44.60;28.20;;;;;;;18.00;39.33;97833.97;223358;186;138391;-70
2023/03/25 12:05:00;;;;;;;9.10;2.40;;;;;;;17.68;40.01;97862.28;223281;185;140245;-68
2023/03/25 12:10:06;;;;;;;5.00;2.40;;;;;;;16.91;42.21;97886.01;223441;185;144000;-72
2023/03/25 12:15:26;;;;;;;3.00;2.00;;;;;;;16.44;44.41;97890.81;223569;185;138421;-71
2023/03/25 12:21:07;;;;;;;3.50;1.60;;;;;;;15.99;45.61;97879.18;223603;185;136666;-72
2023/03/25 12:27:14;;;;;;;4.70;1.60;;;;;;;15.52;47.26;97882.02;223548;186;143446;-69
2023/03/25 12:33:15;;;;;;;7.20;1.70;;;;;;;15.22;49.67;97887.30;223214;185;138589;-71
2023/03/25 12:45:02;;;;;;;5.10;1.50;;;;;;;14.75;52.41;97874.13;220402;193;665605;-72
2023/03/25 12:50:12;;;;;;;2.90;1.60;;;;;;;14.64;52.89;97879.96;223216;187;136172;-68
2023/03/25 12:55:34;;;;;;;92.10;62.40;;;;;;;14.67;53.55;97887.73;223175;186;144174;-69
2023/03/25 13:01:20;;;;;;;5.00;2.80;;;;;;;14.95;53.82;97888.17;223430;185;139743;-67
2023/03/25 13:06:33;;;;;;;2.50;1.50;;;;;;;15.47;53.15;97898.23;223357;184;136620;-68
2023/03/25 13:11:57;;;;;;;3.80;1.90;;;;;;;15.59;52.18;97893.61;223774;183;143579;-68
2023/03/25 13:17:09;;;;;;;4.70;1.70;;;;;;;15.78;51.01;97887.19;223696;182;138337;-67
2023/03/25 13:22:18;;;;;;;4.20;1.60;;;;;;;16.33;50.95;97879.45;223702;182;137241;-69
2023/03/25 13:27:22;;;;;;;2.80;1.10;;;;;;;16.66;48.26;97866.13;223748;183;145645;-71
2023/03/25 13:32:33;;;;;;;3.90;1.00;;;;;;;16.79;44.32;97869.00;223617;183;138451;-70
2023/03/25 13:37:52;;;;;;;4.10;1.60;;;;;;;16.53;41.86;97871.75;223714;183;137256;-69
2023/03/25 13:43:05;;;;;;;4.20;1.00;;;;;;;16.11;41.20;97860.00;223652;183;146136;-68
2023/03/25 13:48:33;;;;;;;1.90;1.50;;;;;;;16.08;41.27;97856.41;223604;182;139311;-68
2023/03/25 13:54:23;;;;;;;3.80;1.00;;;;;;;16.51;42.77;97856.89;223689;183;136425;-67
2023/03/25 13:59:50;;;;;;;4.10;1.20;;;;;;;16.67;41.23;97857.73;223567;183;145251;-73
2023/03/25 14:05:33;;;;;;;2.40;1.10;;;;;;;16.72;40.61;97852.15;223472;184;138689;-67
2023/03/25 14:11:11;;;;;;;9.90;5.70;;;;;;;16.59;41.17;97855.36;223618;184;137593;-69
2023/03/25 14:16:41;;;;;;;5.80;1.80;;;;;;;16.51;41.86;97855.42;223542;184;146149;-71
2023/03/25 14:21:50;;;;;;;3.70;1.80;;;;;;;16.40;41.97;97853.08;223521;183;138199;-68
2023/03/25 14:27:04;;;;;;;5.00;1.90;;;;;;;16.36;42.30;97854.70;223439;184;136807;-72
2023/03/25 14:32:08;;;;;;;4.00;1.60;;;;;;;16.31;42.47;97857.26;223621;183;145726;-67
2023/03/25 14:37:20;;;;;;;4.00;1.70;;;;;;;16.18;42.65;97851.41;223583;184;138409;-71
2023/03/25 14:42:28;;;;;;;2.80;1.60;;;;;;;16.06;42.80;97844.61;223597;183;137026;-70
2023/03/25 14:47:34;;;;;;;10.50;2.10;;;;;;;16.05;43.41;97850.61;223653;184;147598;-69
2023/03/25 14:52:44;;;;;;;2.90;1.80;;;;;;;16.05;43.99;97851.18;223508;184;138782;-67
2023/03/25 14:57:51;;;;;;;4.10;2.10;;;;;;;16.09;44.42;97849.68;223523;183;136902;-70
2023/03/25 15:03:09;;;;;;;4.90;2.30;;;;;;;16.11;44.39;97846.61;223513;184;146025;-72
2023/03/25 15:08:16;;;;;;;8.50;2.50;;;;;;;15.97;45.05;97850.02;223531;183;139637;-72
2023/03/25 15:13:26;;;;;;;8.90;2.70;;;;;;;15.80;45.85;97843.38;223545;184;136214;-68
2023/03/25 15:18:35;;;;;;;5.60;2.70;;;;;;;15.77;46.20;97844.00;223638;184;146076;-70
2023/03/25 15:24:00;;;;;;;4.10;2.40;;;;;;;15.72;46.49;97844.70;223654;184;139357;-72
2023/03/25 15:29:31;;;;;;;5.70;1.90;;;;;;;15.69;46.85;97843.94;223629;183;136421;-70
2023/03/25 15:34:59;;;;;;;7.90;2.40;;;;;;;15.77;47.31;97844.63;223543;184;146069;-71
2023/03/25 15:43:13;;;;;;;4.20;1.30;;;;;;;15.79;45.90;97848.66;219894;192;676382;-70
2023/03/25 15:48:45;;;;;;;4.90;1.30;;;;;;;15.64;43.38;97857.35;223666;184;136843;-69
2023/03/25 15:54:02;;;;;;;4.30;1.20;;;;;;;15.53;42.06;97862.58;223518;183;144217;-71
2023/03/25 15:59:30;;;;;;;5.70;1.40;;;;;;;15.36;41.70;97867.45;223429;183;139272;-74
2023/03/25 16:04:41;;;;;;;2.90;0.90;;;;;;;15.20;40.11;97870.88;223487;184;136870;-67
2023/03/25 16:09:48;;;;;;;108.00;77.80;;;;;;;14.98;39.54;97878.83;223605;183;145118;-68
2023/03/25 16:14:52;;;;;;;7.60;4.40;;;;;;;14.81;39.69;97882.54;223521;183;138816;-67
2023/03/25 16:19:56;;;;;;;2.60;1.60;;;;;;;14.74;40.03;97882.56;223590;183;136266;-68
2023/03/25 16:25:22;;;;;;;5.30;1.70;;;;;;;14.68;40.63;97887.63;223612;182;144786;-69
2023/03/25 16:30:40;;;;;;;3.30;1.70;;;;;;;14.56;41.32;97892.90;223647;183;139386;-68
2023/03/25 16:36:08;;;;;;;3.50;1.70;;;;;;;14.50;41.80;97894.88;223588;183;136661;-68
2023/03/25 16:42:47;;;;;;;3.40;1.20;;;;;;;14.47;41.64;97901.61;222057;193;678642;-66
2023/03/25 16:47:53;;;;;;;3.50;1.30;;;;;;;14.42;41.26;97903.44;223773;181;136440;-68
2023/03/25 16:53:01;;;;;;;2.40;1.20;;;;;;;14.44;41.36;97903.84;223779;181;143414;-68
2023/03/25 16:58:15;;;;;;;2.70;1.20;;;;;;;14.41;41.18;97912.30;223759;181;138332;-68
2023/03/25 17:03:39;;;;;;;5.10;1.30;;;;;;;14.35;41.57;97910.21;223623;181;136940;-74
2023/03/25 17:08:47;;;;;;;3.90;1.20;;;;;;;14.27;42.00;97912.61;223730;181;144211;-69
2023/03/25 17:13:57;;;;;;;3.60;1.30;;;;;;;14.16;42.59;97917.41;223649;181;139798;-68
2023/03/25 17:19:03;;;;;;;318.00;249.60;;;;;;;14.08;43.25;97924.42;223694;182;136942;-69
2023/03/25 17:24:22;;;;;;;7.10;4.20;;;;;;;14.10;43.59;97925.81;223734;181;145061;-71
2023/03/25 17:29:28;;;;;;;7.30;2.40;;;;;;;14.04;43.90;97929.27;223627;182;139111;-68
2023/03/25 17:34:41;;;;;;;4.30;2.10;;;;;;;13.90;44.39;97945.01;223696;181;136367;-71
2023/03/25 17:43:07;;;;;;;7.60;2.90;;;;;;;13.88;44.98;97954.61;218003;193;3694416;-70
2023/03/25 17:48:16;;;;;;;8.60;3.00;;;;;;;13.90;45.08;97956.92;223124;187;144002;-69
2023/03/25 17:53:20;;;;;;;7.00;3.00;;;;;;;13.90;45.67;97971.19;223587;182;139110;-69
2023/03/25 17:58:24;;;;;;;16.00;8.30;;;;;;;13.78;46.70;97964.11;223661;182;137145;-70
2023/03/25 19:05:30;;;;;;;9.40;7.20;;;;;;;13.31;50.51;97968.90;219677;192;666074;-71
2023/03/25 19:10:35;;;;;;;6.10;4.40;;;;;;;13.29;50.77;97974.45;223178;187;136688;-70
2023/03/25 19:15:48;;;;;;;6.80;3.60;;;;;;;13.25;51.04;97969.99;223205;186;145654;-72
2023/03/25 19:20:53;;;;;;;5.10;3.30;;;;;;;13.20;51.47;97973.30;223365;185;140192;-68
2023/03/25 19:25:59;;;;;;;7.40;4.00;;;;;;;13.11;51.67;97976.29;223544;185;135995;-72
2023/03/25 19:31:05;;;;;;;9.60;3.80;;;;;;;13.04;52.04;97984.50;223551;184;144473;-71
2023/03/25 19:36:17;;;;;;;9.30;3.80;;;;;;;12.99;51.95;97986.33;223552;184;138657;-68
2023/03/25 19:42:48;;;;;;;6.80;3.50;;;;;;;12.99;53.76;97987.30;222363;190;675757;-77
2023/03/25 19:47:52;;;;;;;6.40;3.80;;;;;;;12.87;54.08;97986.02;223572;183;136297;-78
2023/03/25 19:53:04;;;;;;;10.00;4.00;;;;;;;12.87;53.42;97988.84;223627;184;143079;-78
2023/03/25 19:58:08;;;;;;;7.60;3.90;;;;;;;12.89;54.75;97987.59;223617;183;138843;-78
2023/03/25 20:03:20;;;;;;;7.50;3.90;;;;;;;12.82;55.76;97983.29;223687;182;136115;-77
2023/03/25 20:08:25;;;;;;;9.00;4.30;;;;;;;12.76;55.95;97987.17;223671;183;143740;-77
2023/03/25 20:13:29;;;;;;;9.00;4.90;;;;;;;12.64;55.60;97994.06;223687;183;138029;-75
2023/03/25 20:18:32;;;;;;;11.30;5.30;;;;;;;12.66;54.52;97990.83;223774;182;136302;-75
2023/03/25 20:23:36;;;;;;;9.50;5.20;;;;;;;12.74;53.90;97994.98;223670;183;143306;-76
2023/03/25 20:28:39;;;;;;;11.30;5.40;;;;;;;12.82;53.47;97986.63;223586;183;139884;-76
2023/03/25 20:33:43;;;;;;;11.60;5.40;;;;;;;12.93;53.19;97985.42;223603;183;136217;-76
2023/03/25 20:38:48;;;;;;;13.50;5.90;;;;;;;12.95;52.82;97984.63;223501;184;144987;-80
2023/03/25 20:44:00;;;;;;;10.80;6.00;;;;;;;12.91;52.53;97986.05;223643;182;138756;-79
2023/03/25 20:49:07;;;;;;;12.30;6.80;;;;;;;12.89;52.43;97985.84;223663;183;136811;-79
2023/03/25 20:54:15;;;;;;;15.90;7.60;;;;;;;12.83;52.30;97984.77;223678;183;145847;-77
2023/03/25 20:59:19;;;;;;;16.90;8.40;;;;;;;12.84;52.43;97982.70;223554;182;139946;-77
2023/03/25 21:04:23;;;;;;;18.00;9.60;;;;;;;12.79;52.37;97983.50;223240;183;136760;-79
2023/03/25 21:09:27;;;;;;;18.80;9.50;;;;;;;12.80;52.27;97985.02;223733;183;145705;-77
2023/03/25 21:14:30;;;;;;;18.90;10.40;;;;;;;12.93;52.14;97988.52;223298;183;138123;-78
2023/03/25 21:19:34;;;;;;;17.60;9.90;;;;;;;13.01;51.93;97989.00;223622;183;137258;-78
2023/03/25 21:24:37;;;;;;;19.60;10.40;;;;;;;13.09;51.46;97997.92;223612;183;230133;-79
2023/03/25 21:29:40;;;;;;;17.40;10.10;;;;;;;13.12;51.13;97998.59;223627;184;138963;-78
2023/03/25 21:34:44;;;;;;;17.50;9.20;;;;;;;13.09;50.83;97996.02;223603;184;136353;-78
2023/03/25 21:39:49;;;;;;;20.50;8.80;;;;;;;13.05;50.41;97990.63;223638;182;145018;-77
2023/03/25 21:44:52;;;;;;;14.70;8.10;;;;;;;12.96;49.99;97992.71;223597;183;138112;-79
2023/03/25 21:49:55;;;;;;;15.70;8.10;;;;;;;12.84;49.59;97995.37;223667;183;136610;-79
2023/03/25 21:54:59;;;;;;;15.00;7.90;;;;;;;12.72;49.53;97996.23;223629;183;145156;-79
2023/03/25 22:00:04;;;;;;;13.00;7.60;;;;;;;12.68;49.19;97993.42;223617;180;138855;-79
2023/03/25 22:05:15;;;;;;;15.70;7.70;;;;;;;12.63;48.98;97994.20;223559;183;136700;-79
2023/03/25 22:10:19;;;;;;;17.90;7.70;;;;;;;12.55;48.70;97996.84;223532;183;145135;-81
2023/03/25 22:15:22;;;;;;;10.20;5.70;;;;;;;12.50;48.61;98000.27;223497;183;140407;-81
2023/03/25 22:20:26;;;;;;;10.90;5.90;;;;;;;12.42;48.18;98003.29;223599;183;139255;-80
2023/03/25 22:25:29;;;;;;;9.00;4.50;;;;;;;12.31;48.33;98018.80;223605;183;145303;-81
2023/03/25 22:30:33;;;;;;;7.90;4.30;;;;;;;12.19;48.50;98024.09;223626;184;137808;-79
2023/03/25 22:35:37;;;;;;;9.00;4.30;;;;;;;12.10;48.71;98028.99;223675;183;136238;-79
2023/03/25 22:40:43;;;;;;;9.50;4.90;;;;;;;11.99;48.96;98041.23;223752;182;145511;-81
2023/03/25 22:45:47;;;;;;;9.90;4.60;;;;;;;11.82;49.11;98046.73;223655;183;138500;-82
2023/03/25 22:50:50;;;;;;;7.50;4.20;;;;;;;11.62;49.44;98048.59;223592;182;136715;-82
2023/03/25 22:55:55;;;;;;;9.10;4.20;;;;;;;11.47;49.86;98048.69;223747;182;145255;-81
2023/03/25 23:01:01;;;;;;;10.10;4.60;;;;;;;11.40;49.89;98046.80;223675;183;138575;-82
2023/03/25 23:06:06;;;;;;;7.80;4.10;;;;;;;11.36;49.96;98042.30;223526;182;137240;-83
2023/03/25 23:11:22;;;;;;;6.80;2.80;;;;;;;11.31;49.43;98048.05;223584;183;145418;-81
2023/03/25 23:16:29;;;;;;;5.80;3.00;;;;;;;11.23;49.38;98060.64;223665;183;138265;-83
2023/03/25 23:21:33;;;;;;;5.00;2.50;;;;;;;11.24;49.31;98060.02;223587;182;137089;-82
2023/03/25 23:26:39;;;;;;;5.00;2.50;;;;;;;11.26;49.24;98052.09;223611;182;145449;-85
2023/03/25 23:31:43;;;;;;;4.90;2.10;;;;;;;11.30;49.27;98044.59;223576;182;139461;-87
2023/03/25 23:36:46;;;;;;;4.00;2.00;;;;;;;11.33;49.00;98048.08;223766;182;136441;-86
2023/03/25 23:41:50;;;;;;;6.00;2.10;;;;;;;11.37;48.86;98046.02;223764;183;145743;-81
2023/03/25 23:46:54;;;;;;;3.80;1.90;;;;;;;11.35;49.02;98047.95;223587;183;138514;-80
2023/03/25 23:51:59;;;;;;;7.60;2.50;;;;;;;11.37;49.50;98053.06;223608;182;137156;-82
2023/03/25 23:57:02;;;;;;;4.70;2.10;;;;;;;11.37;49.72;98058.09;223684;183;145046;-81
